Time;durP1;ratioP1;P1;durP2;ratioP2;P2;SDS_P1;SDS_P2;PMS_P1;PMS_P2;Temp;Humidity;BMP_temperature;BMP_pressure;BME280_temperature;BME280_humidity;BME280_pressure;Samples;Min_cycle;Max_cycle;Signal;HPM_P1;HPM_P2
2023/01/07 00:01:29;;;;;;;6.00;3.50;;;;;;;11.12;100.00;101511.66;5095956;28;20426;-50
2023/01/07 00:03:58;;;;;;;5.40;3.22;;;;;;;11.14;100.00;101514.97;5096576;28;20040;-45
2023/01/07 00:06:28;;;;;;;6.20;3.95;;;;;;;11.12;100.00;101512.47;5082606;28;20036;-45
2023/01/07 00:08:57;;;;;;;5.90;3.78;;;;;;;11.12;100.00;101506.22;5094790;28;20062;-47
2023/01/07 00:11:30;;;;;;;7.18;3.80;;;;;;;11.14;100.00;101504.06;5094714;28;20044;-46
2023/01/07 00:13:58;;;;;;;8.13;3.88;;;;;;;11.13;100.00;101507.84;5094922;28;20047;-46
2023/01/07 00:16:29;;;;;;;7.28;4.15;;;;;;;11.09;100.00;101496.63;5093811;28;20044;-45
2023/01/07 00:18:59;;;;;;;6.90;3.88;;;;;;;11.13;100.00;101495.03;5062289;28;20039;-44
2023/01/07 00:21:28;;;;;;;7.03;3.63;;;;;;;11.11;100.00;101504.53;5096237;28;20155;-47
2023/01/07 00:24:01;;;;;;;9.10;4.10;;;;;;;11.09;100.00;101494.72;5094797;28;20091;-46
2023/01/07 00:26:33;;;;;;;6.45;4.07;;;;;;;11.09;100.00;101502.91;5094853;28;20058;-46
2023/01/07 00:29:02;;;;;;;5.97;3.65;;;;;;;11.11;100.00;101493.63;5094316;28;20079;-44
2023/01/07 00:31:35;;;;;;;5.65;3.25;;;;;;;11.10;100.00;101503.72;5078001;28;20067;-45
2023/01/07 00:36:39;;;;;;;8.43;3.70;;;;;;;11.11;100.00;101488.19;5095699;28;20050;-46
2023/01/07 00:39:13;;;;;;;6.70;3.78;;;;;;;11.11;100.00;101486.28;5096706;28;20483;-44
2023/01/07 00:42:53;;;;;;;4.82;3.05;;;;;;;11.14;100.00;101490.41;5097203;28;20055;-44
2023/01/07 00:44:32;;;;;;;8.98;4.72;;;;;;;11.14;100.00;101479.50;5075564;28;20076;-45
2023/01/07 00:47:00;;;;;;;5.75;3.60;;;;;;;11.15;100.00;101489.31;5085837;28;20044;-45
2023/01/07 00:49:28;;;;;;;5.70;3.45;;;;;;;11.12;100.00;101468.84;5093200;28;20048;-46
2023/01/07 00:51:56;;;;;;;7.75;3.90;;;;;;;11.13;100.00;101477.84;5095005;28;20048;-45
2023/01/07 00:54:24;;;;;;;7.60;3.90;;;;;;;11.07;100.00;101475.06;5076885;28;20409;-46
2023/01/07 00:56:52;;;;;;;6.80;3.22;;;;;;;11.08;100.00;101462.25;5094002;28;20479;-47
2023/01/07 00:59:20;;;;;;;4.53;3.15;;;;;;;11.09;100.00;101470.19;5092220;28;20032;-47
2023/01/07 01:01:48;;;;;;;7.05;3.35;;;;;;;11.08;100.00;101463.06;5095020;28;20040;-46
2023/01/07 01:04:36;;;;;;;7.30;3.05;;;;;;;11.09;100.00;101462.00;5088626;28;20043;-45
2023/01/07 01:07:03;;;;;;;6.00;3.00;;;;;;;11.12;100.00;101451.66;5082682;28;20037;-46
2023/01/07 01:09:31;;;;;;;4.28;2.80;;;;;;;11.07;100.00;101455.16;5094023;28;20040;-44
2023/01/07 01:11:58;;;;;;;7.25;3.20;;;;;;;11.04;100.00;101453.75;5095918;28;20043;-44
2023/01/07 01:14:26;;;;;;;5.95;3.00;;;;;;;11.03;100.00;101454.81;5095610;28;20047;-43
2023/01/07 01:16:54;;;;;;;6.90;3.30;;;;;;;11.07;100.00;101441.53;5093991;28;20047;-46
2023/01/07 01:19:21;;;;;;;4.35;3.08;;;;;;;11.04;100.00;101442.84;5077005;28;20498;-46
2023/01/07 01:21:49;;;;;;;5.63;3.25;;;;;;;11.02;100.00;101446.91;5093619;28;20044;-43
2023/01/07 01:24:17;;;;;;;4.88;3.05;;;;;;;11.03;100.00;101443.09;5092601;28;20040;-44
2023/01/07 01:26:46;;;;;;;5.07;2.90;;;;;;;11.03;100.00;101441.19;5093531;28;20498;-42
2023/01/07 01:29:13;;;;;;;6.00;3.00;;;;;;;11.05;100.00;101436.31;5092754;28;20467;-43
2023/01/07 01:31:41;;;;;;;5.32;3.13;;;;;;;11.02;100.00;101439.56;5093258;28;20153;-42
2023/01/07 01:34:09;;;;;;;4.68;2.53;;;;;;;11.01;100.00;101437.91;5089408;28;20037;-43
2023/01/07 01:36:37;;;;;;;5.25;3.15;;;;;;;10.98;100.00;101430.22;5085664;28;20068;-43
2023/01/07 01:39:05;;;;;;;5.38;3.10;;;;;;;10.97;100.00;101425.88;5110446;28;20459;-46
2023/01/07 01:41:34;;;;;;;6.50;3.08;;;;;;;10.96;100.00;101428.84;5073213;28;20051;-45
2023/01/07 01:44:33;;;;;;;7.05;3.45;;;;;;;10.96;100.00;101426.94;5059564;28;20047;-42
2023/01/07 01:47:03;;;;;;;5.07;3.08;;;;;;;10.93;100.00;101427.44;5076650;28;20075;-46
2023/01/07 01:49:37;;;;;;;4.70;2.67;;;;;;;10.93;100.00;101432.91;5094495;28;20044;-43
2023/01/07 01:52:12;;;;;;;4.35;2.53;;;;;;;10.93;100.00;101432.91;5092671;28;20074;-44
2023/01/07 01:54:43;;;;;;;7.22;3.38;;;;;;;10.93;100.00;101432.91;5092561;28;20156;-45
2023/01/07 01:57:10;;;;;;;6.30;2.95;;;;;;;10.91;100.00;101428.78;5092876;28;20417;-45
2023/01/07 01:59:42;;;;;;;5.47;3.05;;;;;;;10.90;100.00;101438.88;5089355;28;20504;-45
2023/01/07 02:02:14;;;;;;;6.82;2.55;;;;;;;10.93;100.00;101422.00;5063139;28;20051;-45
2023/01/07 02:04:43;;;;;;;4.90;2.67;;;;;;;10.93;100.00;101427.44;5076293;28;20486;-44
2023/01/07 02:07:16;;;;;;;5.70;2.83;;;;;;;10.89;100.00;101418.13;5075939;28;20043;-44
2023/01/07 02:10:08;;;;;;;6.90;3.47;;;;;;;10.91;100.00;101415.97;5092892;28;20036;-45
2023/01/07 02:12:54;;;;;;;6.30;2.97;;;;;;;10.89;100.00;101423.59;5091987;28;20040;-44
2023/01/07 02:15:50;;;;;;;5.80;3.00;;;;;;;10.89;100.00;101420.84;5093455;28;20441;-46
2023/01/07 02:18:20;;;;;;;4.80;2.88;;;;;;;10.90;100.00;101422.53;5093531;28;20402;-47
2023/01/07 02:21:10;;;;;;;7.78;3.00;;;;;;;10.87;100.00;101428.47;5092541;28;20401;-45
2023/01/07 02:23:59;;;;;;;8.27;3.63;;;;;;;10.87;100.00;101418.41;5092609;28;20059;-43
2023/01/07 02:26:35;;;;;;;4.82;3.05;;;;;;;10.88;100.00;101419.22;5091942;28;20085;-45
2023/01/07 02:29:33;;;;;;;5.38;2.95;;;;;;;10.89;100.00;101412.69;5093636;28;20040;-45
2023/01/07 02:33:14;;;;;;;3.25;2.25;;;;;;;10.94;100.00;101415.44;5093348;28;20041;-45
2023/01/07 02:36:12;;;;;;;5.10;2.83;;;;;;;10.91;100.00;101410.53;4975559;28;20045;-46
2023/01/07 02:39:14;;;;;;;4.97;3.03;;;;;;;10.90;100.00;101416.25;5031773;28;20492;-44
2023/01/07 02:42:04;;;;;;;6.07;3.30;;;;;;;10.89;100.00;101404.50;5092225;28;20094;-45
2023/01/07 02:44:48;;;;;;;7.20;3.58;;;;;;;10.86;100.00;101415.91;5092867;28;20040;-46
2023/01/07 02:47:28;;;;;;;7.10;2.97;;;;;;;10.81;100.00;101402.25;5077543;28;20376;-48
2023/01/07 02:49:59;;;;;;;3.53;2.53;;;;;;;10.82;100.00;101403.88;5076395;28;20036;-46
2023/01/07 02:52:28;;;;;;;5.85;2.50;;;;;;;10.87;100.00;101401.19;5091779;28;20127;-46
2023/01/07 02:54:59;;;;;;;5.07;2.40;;;;;;;10.85;100.00;101401.47;5090623;28;20070;-45
2023/01/07 02:57:39;;;;;;;6.90;2.50;;;;;;;10.85;100.00;101398.75;5092229;28;20036;-46
2023/01/07 03:00:27;;;;;;;5.63;2.60;;;;;;;10.87;100.00;101387.56;5075860;28;20044;-44
2023/01/07 03:03:20;;;;;;;4.55;2.85;;;;;;;10.86;100.00;101388.66;5075403;28;20063;-45
2023/01/07 03:06:00;;;;;;;4.72;2.40;;;;;;;10.83;100.00;101392.72;5090236;28;20067;-44
2023/01/07 03:08:49;;;;;;;3.97;2.50;;;;;;;10.83;100.00;101379.09;5091888;28;20048;-45
2023/01/07 03:11:18;;;;;;;4.45;2.90;;;;;;;10.82;100.00;101379.34;5092030;28;20039;-45
2023/01/07 03:13:49;;;;;;;4.78;2.70;;;;;;;10.80;100.00;101378.75;5091958;28;20062;-45
2023/01/07 03:16:25;;;;;;;6.65;2.97;;;;;;;10.81;100.00;101380.44;5107251;28;20081;-46
2023/01/07 03:19:02;;;;;;;3.97;2.67;;;;;;;10.81;100.00;101369.53;5091131;28;20098;-44
2023/01/07 03:21:32;;;;;;;3.80;2.28;;;;;;;10.82;100.00;101376.59;5091851;28;20044;-45
2023/01/07 03:24:00;;;;;;;3.88;2.50;;;;;;;10.83;100.00;101370.09;5091613;28;20040;-45
2023/01/07 03:26:38;;;;;;;4.78;2.58;;;;;;;10.83;100.00;101367.38;5091688;28;20067;-46
2023/01/07 03:29:09;;;;;;;4.32;2.50;;;;;;;10.83;100.00;101359.19;5092613;28;20383;-44
2023/01/07 03:31:43;;;;;;;3.42;2.30;;;;;;;10.81;100.00;101358.63;5074982;28;20502;-44
2023/01/07 03:34:12;;;;;;;3.35;2.47;;;;;;;10.79;100.00;101353.41;5091266;28;20072;-45
2023/01/07 03:36:48;;;;;;;5.05;2.58;;;;;;;10.78;100.00;101354.50;5071444;28;20553;-45
2023/01/07 03:39:17;;;;;;;3.83;2.45;;;;;;;10.79;100.00;101356.13;5090678;28;20101;-45
2023/01/07 03:44:34;;;;;;;4.05;2.45;;;;;;;10.83;100.00;101356.47;5092401;28;20052;-45
2023/01/07 03:47:02;;;;;;;4.70;2.80;;;;;;;10.80;100.00;101354.22;5091549;28;20047;-46
2023/01/07 03:49:30;;;;;;;5.10;2.53;;;;;;;10.81;100.00;101345.00;5061055;28;20090;-46
2023/01/07 03:51:59;;;;;;;2.90;2.08;;;;;;;10.82;100.00;101339.28;5069571;28;20087;-46
2023/01/07 03:54:27;;;;;;;5.55;2.28;;;;;;;10.83;100.00;101345.56;5091700;28;20370;-45
2023/01/07 03:56:55;;;;;;;4.75;2.25;;;;;;;10.81;100.00;101342.28;5091452;28;20093;-45
2023/01/07 03:59:23;;;;;;;3.42;2.22;;;;;;;10.78;100.00;101340.06;5091073;28;20067;-44
2023/01/07 04:01:52;;;;;;;5.70;2.40;;;;;;;10.81;100.00;101337.63;5091208;28;20062;-46
2023/01/07 04:04:20;;;;;;;3.03;2.20;;;;;;;10.80;100.00;101333.28;5083532;28;20047;-45
2023/01/07 04:06:48;;;;;;;3.40;2.38;;;;;;;10.82;100.00;101333.00;5092434;28;20044;-45
2023/01/07 04:09:20;;;;;;;2.70;2.00;;;;;;;10.86;100.00;101334.13;5108327;28;20036;-45
2023/01/07 04:11:48;;;;;;;4.88;2.53;;;;;;;10.87;100.00;101331.16;5108258;28;20052;-46
2023/01/07 04:14:37;;;;;;;7.22;2.40;;;;;;;10.85;100.00;101327.06;5087301;28;20036;-46
2023/01/07 04:17:04;;;;;;;4.95;2.33;;;;;;;10.91;100.00;101320.56;5094626;28;20111;-45
2023/01/07 04:19:32;;;;;;;3.78;2.00;;;;;;;10.92;100.00;101321.38;5096975;28;20375;-45
2023/01/07 04:22:00;;;;;;;3.83;2.08;;;;;;;10.88;100.00;101312.91;5095200;28;20036;-45
2023/01/07 04:24:31;;;;;;;5.05;2.28;;;;;;;10.88;100.00;101307.44;5084391;28;20083;-44
2023/01/07 04:26:59;;;;;;;4.30;2.05;;;;;;;10.86;100.00;101312.31;5096007;28;20067;-45
2023/01/07 04:29:27;;;;;;;4.38;2.42;;;;;;;10.86;100.00;101307.69;5094550;28;20032;-45
2023/01/07 04:31:55;;;;;;;2.63;1.92;;;;;;;10.84;100.00;101298.13;5111445;28;20078;-45
2023/01/07 04:34:22;;;;;;;4.13;2.22;;;;;;;10.83;100.00;101296.50;5093412;28;20115;-44
2023/01/07 04:36:50;;;;;;;3.90;2.17;;;;;;;10.82;100.00;101301.13;5094807;28;20067;-45
2023/01/07 04:39:19;;;;;;;3.22;2.00;;;;;;;10.86;100.00;101296.78;5094370;28;20600;-45
2023/01/07 04:41:47;;;;;;;2.47;2.28;;;;;;;10.84;100.00;101289.94;5077812;28;20128;-45
2023/01/07 04:44:16;;;;;;;3.42;1.98;;;;;;;10.83;100.00;101282.88;5093685;28;20040;-46
2023/01/07 04:46:44;;;;;;;3.15;2.25;;;;;;;10.83;100.00;101274.69;5075412;28;20086;-45
2023/01/07 04:49:12;;;;;;;2.65;2.10;;;;;;;10.85;100.00;101277.97;5097485;28;20123;-52
2023/01/07 04:51:40;;;;;;;3.35;1.83;;;;;;;10.87;100.00;101281.25;5079276;28;20052;-47
2023/01/07 04:54:09;;;;;;;5.00;2.25;;;;;;;10.84;100.00;101270.88;5087106;28;20105;-46
2023/01/07 04:56:37;;;;;;;2.92;2.03;;;;;;;10.81;100.00;101265.94;5094675;28;20131;-45
2023/01/07 04:59:05;;;;;;;4.15;1.98;;;;;;;10.82;100.00;101273.03;5097455;28;20070;-46
2023/01/07 05:01:33;;;;;;;6.07;2.10;;;;;;;10.82;100.00;101267.56;5100139;28;20513;-45
2023/01/07 05:04:01;;;;;;;3.28;1.80;;;;;;;10.85;100.00;101272.53;5097479;28;20047;-47
2023/01/07 05:06:29;;;;;;;3.20;1.80;;;;;;;10.84;100.00;101270.88;5097162;28;20044;-45
2023/01/07 05:08:57;;;;;;;6.93;2.33;;;;;;;10.84;100.00;101265.41;5093283;28;20040;-44
2023/01/07 05:11:25;;;;;;;3.30;2.22;;;;;;;10.83;100.00;101269.25;5076011;28;20043;-45
2023/01/07 05:13:58;;;;;;;4.40;2.10;;;;;;;10.85;100.00;101262.44;5093946;28;20040;-45
2023/01/07 05:16:26;;;;;;;4.50;1.60;;;;;;;10.98;100.00;101263.91;5107911;28;20486;-47
2023/01/07 05:18:56;;;;;;;4.10;1.90;;;;;;;11.09;100.00;101257.47;5109907;28;20482;-46
2023/01/07 05:21:24;;;;;;;4.88;1.98;;;;;;;11.14;100.00;101258.59;5077459;28;20040;-45
2023/01/07 05:23:52;;;;;;;6.97;2.00;;;;;;;11.18;100.00;101246.88;5076109;28;20036;-46
2023/01/07 05:26:21;;;;;;;9.95;2.20;;;;;;;11.27;100.00;101255.41;5092296;28;20044;-46
2023/01/07 05:28:49;;;;;;;4.18;1.90;;;;;;;11.20;100.00;101252.91;5092183;28;20123;-46
2023/01/07 05:31:17;;;;;;;3.42;1.73;;;;;;;11.27;100.00;101249.94;5093544;28;20040;-44
2023/01/07 05:33:45;;;;;;;3.05;1.95;;;;;;;11.26;100.00;101251.03;5094339;28;20456;-45
2023/01/07 05:36:13;;;;;;;6.28;2.40;;;;;;;11.23;100.00;101254.28;5093451;28;20042;-46
2023/01/07 05:38:41;;;;;;;4.93;2.08;;;;;;;11.29;100.00;101256.78;5093473;28;20036;-47
2023/01/07 05:41:10;;;;;;;3.83;2.28;;;;;;;11.17;100.00;101247.16;5093273;28;20055;-47
2023/01/07 05:43:38;;;;;;;4.70;2.10;;;;;;;11.23;100.00;101240.63;5092779;28;20089;-45
2023/01/07 05:46:05;;;;;;;4.25;1.95;;;;;;;11.22;100.00;101245.28;5094347;28;20051;-45
2023/01/07 05:48:33;;;;;;;6.22;1.77;;;;;;;11.29;100.00;101240.41;5095014;28;20040;-50
2023/01/07 05:51:01;;;;;;;2.53;1.83;;;;;;;11.32;100.00;101241.78;5096299;28;20043;-45
2023/01/07 05:53:28;;;;;;;4.45;1.50;;;;;;;11.42;100.00;101243.78;5110350;28;20047;-46
2023/01/07 05:55:57;;;;;;;4.18;2.00;;;;;;;11.38;100.00;101248.94;5093982;28;20044;-45
2023/01/07 05:58:25;;;;;;;3.58;1.67;;;;;;;11.35;100.00;101238.53;5093685;28;20144;-47
2023/01/07 06:00:53;;;;;;;5.03;2.10;;;;;;;11.33;100.00;101237.16;5094271;28;20056;-46
2023/01/07 06:03:21;;;;;;;9.23;1.95;;;;;;;11.39;100.00;101234.19;5092402;28;20040;-46
2023/01/07 06:05:49;;;;;;;4.50;1.88;;;;;;;11.34;100.00;101228.72;5094246;28;20453;-45
2023/01/07 06:08:17;;;;;;;4.53;2.30;;;;;;;11.26;100.00;101226.50;5092709;28;20093;-47
2023/01/07 06:10:44;;;;;;;5.55;2.03;;;;;;;11.30;100.00;101222.13;5094320;28;20086;-46
2023/01/07 06:13:12;;;;;;;5.90;2.45;;;;;;;11.29;100.00;101215.06;5093547;28;20461;-45
2023/01/07 06:15:40;;;;;;;5.65;2.50;;;;;;;11.01;100.00;101211.56;5093956;28;20043;-46
2023/01/07 06:18:07;;;;;;;5.95;2.55;;;;;;;10.91;100.00;101211.50;5092017;28;20044;-44
2023/01/07 06:20:35;;;;;;;4.43;2.30;;;;;;;10.82;100.00;101213.06;5092190;28;20368;-44
2023/01/07 06:23:03;;;;;;;3.35;2.25;;;;;;;10.77;100.00;101215.75;5092864;28;20044;-46
2023/01/07 06:25:31;;;;;;;3.97;2.20;;;;;;;10.71;100.00;101206.72;5090583;28;20089;-45
2023/01/07 06:27:59;;;;;;;5.38;2.08;;;;;;;10.69;100.00;101208.06;5088959;28;20040;-46
2023/01/07 06:30:26;;;;;;;3.22;2.10;;;;;;;10.64;100.00;101201.47;5088937;28;20051;-45
2023/01/07 06:32:54;;;;;;;2.55;1.77;;;;;;;10.84;100.00;101205.44;5093237;28;20110;-46
2023/01/07 06:35:22;;;;;;;6.30;2.40;;;;;;;11.02;100.00;101191.41;5091717;28;20070;-45
2023/01/07 06:37:49;;;;;;;6.75;2.22;;;;;;;11.06;100.00;101198.00;5093245;28;20039;-47
2023/01/07 06:40:17;;;;;;;2.53;1.70;;;;;;;11.03;100.00;101198.50;5092828;28;20044;-45
2023/01/07 06:42:44;;;;;;;4.95;1.98;;;;;;;11.16;100.00;101186.34;5093238;28;20091;-45
2023/01/07 06:45:12;;;;;;;3.90;1.85;;;;;;;11.19;100.00;101190.44;5092977;28;20052;-45
2023/01/07 06:47:40;;;;;;;4.65;1.80;;;;;;;11.21;100.00;101189.09;5092400;28;20044;-45
2023/01/07 06:50:08;;;;;;;3.60;1.77;;;;;;;11.17;100.00;101179.78;5093485;28;20036;-45
2023/01/07 06:52:36;;;;;;;6.40;2.40;;;;;;;11.09;100.00;101191.19;5093840;28;20074;-48
2023/01/07 06:55:04;;;;;;;9.18;3.88;;;;;;;10.98;100.00;101171.19;5095553;28;20040;-46
2023/01/07 06:57:32;;;;;;;7.60;2.75;;;;;;;10.85;100.00;101168.94;5090813;28;20040;-45
2023/01/07 06:59:59;;;;;;;16.05;4.95;;;;;;;10.88;100.00;101173.88;5090763;28;20044;-46
2023/01/07 07:02:28;;;;;;;28.40;9.25;;;;;;;10.87;100.00;101161.31;5091048;28;20033;-45
2023/01/07 07:04:55;;;;;;;52.50;13.18;;;;;;;10.97;100.00;101171.50;5092854;28;20502;-46
2023/01/07 07:07:24;;;;;;;47.75;12.38;;;;;;;11.18;100.00;101164.25;5092795;28;20102;-46
2023/01/07 07:09:51;;;;;;;18.13;5.55;;;;;;;11.08;100.00;101160.34;5091917;28;20375;-44
2023/01/07 07:12:19;;;;;;;32.78;7.97;;;;;;;11.10;100.00;101165.56;5090764;28;20428;-46
2023/01/07 07:14:47;;;;;;;17.23;4.65;;;;;;;11.08;100.00;101168.53;5079180;28;20048;-45
2023/01/07 07:17:15;;;;;;;23.08;7.15;;;;;;;11.04;100.00;101161.16;5092604;28;20051;-48
2023/01/07 07:19:42;;;;;;;17.88;5.50;;;;;;;11.00;100.00;101163.59;5092736;28;20039;-45
2023/01/07 07:22:10;;;;;;;8.55;3.47;;;;;;;10.86;100.00;101154.22;5089429;28;20045;-47
2023/01/07 07:24:38;;;;;;;26.58;6.40;;;;;;;10.99;100.00;101152.94;5091111;28;20044;-47
2023/01/07 07:27:05;;;;;;;29.65;8.38;;;;;;;11.12;100.00;101151.66;5093318;28;20089;-46
2023/01/07 07:29:33;;;;;;;31.27;8.93;;;;;;;11.12;100.00;101146.22;5092277;28;20059;-46
2023/01/07 07:32:01;;;;;;;29.50;8.25;;;;;;;11.17;100.00;101144.34;5089104;28;20498;-45
2023/01/07 07:34:28;;;;;;;22.40;5.78;;;;;;;11.24;100.00;101135.91;5089413;28;20040;-47
2023/01/07 07:36:56;;;;;;;16.58;5.03;;;;;;;11.11;100.00;101139.09;5091939;28;20044;-46
2023/01/07 07:39:24;;;;;;;5.93;2.72;;;;;;;10.98;100.00;101138.50;5092436;28;20072;-45
2023/01/07 07:41:52;;;;;;;7.18;2.67;;;;;;;10.87;100.00;101140.34;5092592;28;20145;-45
2023/01/07 07:44:21;;;;;;;2.58;1.67;;;;;;;10.78;100.00;101135.63;5074106;28;20051;-45
2023/01/07 07:46:49;;;;;;;2.55;1.90;;;;;;;10.68;100.00;101144.56;5092273;28;20040;-47
2023/01/07 07:49:17;;;;;;;3.38;2.10;;;;;;;10.66;100.00;101133.91;5092361;28;20083;-45
2023/01/07 07:51:44;;;;;;;9.57;3.05;;;;;;;10.78;100.00;101130.19;5093554;28;20052;-47
2023/01/07 07:54:12;;;;;;;15.18;4.03;;;;;;;10.88;100.00;101132.97;5096235;28;20057;-47
2023/01/07 07:56:39;;;;;;;21.38;6.72;;;;;;;11.08;100.00;101127.63;5096168;28;20483;-46
2023/01/07 07:59:07;;;;;;;13.88;4.65;;;;;;;11.13;100.00;101120.56;5095953;28;20048;-45
2023/01/07 08:01:34;;;;;;;14.60;4.38;;;;;;;11.25;100.00;101118.47;5095772;28;20047;-49
2023/01/07 08:04:04;;;;;;;21.27;5.88;;;;;;;11.20;100.00;101121.16;5095668;28;20058;-45
2023/01/07 08:06:33;;;;;;;19.35;6.32;;;;;;;11.12;100.00;101113.50;5096269;28;20418;-47
2023/01/07 08:09:00;;;;;;;14.05;4.68;;;;;;;11.11;100.00;101122.75;5096305;28;20406;-48
2023/01/07 08:11:28;;;;;;;18.10;5.70;;;;;;;11.12;100.00;101124.41;5095972;28;20038;-46
2023/01/07 08:13:56;;;;;;;12.20;3.90;;;;;;;11.15;100.00;101116.50;5089469;28;20094;-46
2023/01/07 08:16:23;;;;;;;17.23;5.47;;;;;;;11.23;100.00;101113.28;5094350;28;20383;-46
2023/01/07 08:18:51;;;;;;;15.95;5.05;;;;;;;11.24;100.00;101105.91;5095339;28;20043;-46
2023/01/07 08:21:19;;;;;;;18.95;5.65;;;;;;;11.25;100.00;101102.09;5093924;28;20039;-46
2023/01/07 08:23:46;;;;;;;21.02;5.88;;;;;;;11.21;100.00;101101.00;5095685;28;20444;-46
2023/01/07 08:26:14;;;;;;;14.75;4.18;;;;;;;11.16;100.00;101103.69;5095486;28;20050;-45
2023/01/07 08:28:42;;;;;;;9.70;3.67;;;;;;;11.19;100.00;101103.97;5095044;28;20043;-46
2023/01/07 08:31:12;;;;;;;11.57;3.17;;;;;;;11.07;100.00;101100.66;5091162;28;20062;-46
2023/01/07 08:33:40;;;;;;;17.38;5.43;;;;;;;11.02;100.00;101101.44;5094693;28;20036;-45
2023/01/07 08:36:09;;;;;;;11.50;3.83;;;;;;;11.00;100.00;101095.44;5095718;28;20139;-46
2023/01/07 08:38:53;;;;;;;18.17;5.45;;;;;;;11.09;100.00;101099.28;5094804;28;20039;-45
2023/01/07 08:41:22;;;;;;;14.38;3.45;;;;;;;11.07;100.00;101095.19;5094201;28;20230;-46
2023/01/07 08:43:51;;;;;;;10.20;3.47;;;;;;;11.04;100.00;101090.25;5095239;28;20063;-46
2023/01/07 08:46:19;;;;;;;10.50;3.20;;;;;;;11.05;100.00;101083.72;5095079;28;20453;-45
2023/01/07 08:48:47;;;;;;;14.65;5.22;;;;;;;11.16;100.00;101090.03;5095098;28;20156;-45
2023/01/07 08:51:15;;;;;;;17.05;5.70;;;;;;;11.27;100.00;101083.56;5094646;28;20538;-48
2023/01/07 08:53:42;;;;;;;12.05;4.18;;;;;;;11.46;100.00;101082.00;5093788;28;20046;-52
2023/01/07 08:56:10;;;;;;;18.50;5.45;;;;;;;12.15;100.00;101083.53;5090915;28;20033;-45
2023/01/07 08:58:38;;;;;;;24.58;5.75;;;;;;;12.35;100.00;101082.72;5094762;28;20040;-45
2023/01/07 09:01:06;;;;;;;22.38;5.45;;;;;;;12.46;100.00;101083.56;5093783;28;20042;-45
2023/01/07 09:03:34;;;;;;;17.58;4.60;;;;;;;12.46;100.00;101082.72;5094562;28;20044;-47
2023/01/07 09:06:02;;;;;;;12.27;4.65;;;;;;;12.64;100.00;101084.88;5095434;28;20036;-48
2023/01/07 09:08:30;;;;;;;15.95;4.68;;;;;;;12.56;100.00;101082.72;5094311;28;20494;-46
2023/01/07 09:10:58;;;;;;;11.95;3.85;;;;;;;12.44;100.00;101074.81;5094460;28;20040;-48
2023/01/07 09:13:25;;;;;;;14.25;3.35;;;;;;;12.49;100.00;101071.25;5094660;28;20094;-46
2023/01/07 09:15:53;;;;;;;5.90;2.45;;;;;;;12.47;100.00;101073.44;5089303;28;20044;-45
2023/01/07 09:18:20;;;;;;;13.75;3.97;;;;;;;12.59;100.00;101065.78;5084448;28;20045;-46
2023/01/07 09:20:48;;;;;;;9.05;2.90;;;;;;;12.43;100.00;101066.88;5094723;28;20036;-45
2023/01/07 09:23:16;;;;;;;11.45;3.55;;;;;;;12.69;100.00;101065.75;5093374;28;20110;-46
2023/01/07 09:25:44;;;;;;;4.15;2.20;;;;;;;12.67;100.00;101059.72;5093901;28;20047;-48
2023/01/07 09:28:12;;;;;;;7.85;3.33;;;;;;;12.57;100.00;101060.56;5094452;28;20498;-46
2023/01/07 09:30:39;;;;;;;7.38;2.85;;;;;;;12.55;100.00;101059.19;5092201;28;20039;-47
2023/01/07 09:33:07;;;;;;;14.88;3.40;;;;;;;12.45;100.00;101053.75;5094552;28;20036;-46
2023/01/07 09:35:34;;;;;;;8.40;3.05;;;;;;;12.40;100.00;101051.84;5094201;28;20113;-47
2023/01/07 09:38:02;;;;;;;6.80;2.90;;;;;;;12.41;100.00;101053.50;5094544;28;20465;-47
2023/01/07 09:40:37;;;;;;;8.48;3.10;;;;;;;12.34;100.00;101044.75;5094296;28;20036;-46
2023/01/07 09:43:19;;;;;;;7.43;2.70;;;;;;;12.25;100.00;101044.47;5072969;28;20509;-46
2023/01/07 09:45:49;;;;;;;10.95;2.97;;;;;;;12.51;100.00;101044.47;5092755;28;20039;-46
2023/01/07 09:48:33;;;;;;;5.18;2.38;;;;;;;12.44;100.00;101039.28;5076217;28;20041;-46
2023/01/07 09:51:22;;;;;;;5.30;2.30;;;;;;;12.35;100.00;101039.00;5097588;28;20040;-47
2023/01/07 09:53:51;;;;;;;5.20;2.33;;;;;;;12.45;100.00;101040.09;5093895;28;20387;-45
2023/01/07 09:56:36;;;;;;;3.95;2.15;;;;;;;11.99;99.65;101040.09;5092810;28;20036;-46
2023/01/07 09:59:05;;;;;;;4.20;1.95;;;;;;;11.87;100.00;101026.72;5092607;28;20066;-45
2023/01/07 10:01:44;;;;;;;3.38;1.63;;;;;;;11.62;96.66;101031.03;5093980;28;20453;-45
2023/01/07 10:04:30;;;;;;;3.38;1.92;;;;;;;11.80;100.00;101020.66;5094223;28;20095;-46
2023/01/07 10:07:05;;;;;;;;;;;;;;;11.88;100.00;101023.72;5093376;28;20131;-45
2023/01/07 10:09:51;;;;;;;2.97;1.70;;;;;;;11.94;100.00;101016.34;5092335;28;19920;-46
2023/01/07 10:12:34;;;;;;;3.17;1.63;;;;;;;11.73;100.00;101010.81;5089161;28;20045;-45
2023/01/07 10:15:29;;;;;;;3.13;1.88;;;;;;;11.70;98.30;101007.81;5092173;28;20132;-46
2023/01/07 10:18:18;;;;;;;3.30;1.83;;;;;;;11.49;94.28;101004.22;5093223;28;20044;-45
2023/01/07 10:20:46;;;;;;;3.40;1.75;;;;;;;11.39;96.97;100993.31;5093213;28;20406;-45
2023/01/07 10:23:24;;;;;;;5.90;2.17;;;;;;;11.47;95.88;100985.44;5093574;28;20402;-45
2023/01/07 10:25:54;;;;;;;4.07;1.70;;;;;;;11.61;96.31;100973.97;5092338;28;20036;-46
2023/01/07 10:28:35;;;;;;;4.57;1.90;;;;;;;11.65;97.53;100966.88;5090920;28;20059;-48
2023/01/07 10:31:04;;;;;;;3.70;1.50;;;;;;;11.44;91.27;100966.84;5094822;28;20490;-45
2023/01/07 10:33:33;;;;;;;3.35;2.10;;;;;;;11.25;91.37;100955.63;5092322;28;20418;-45
2023/01/07 10:36:30;;;;;;;3.15;1.85;;;;;;;11.08;92.09;100950.38;5088828;28;20045;-46
2023/01/07 10:39:08;;;;;;;4.07;1.98;;;;;;;11.03;93.86;100944.91;5089523;28;20044;-45
2023/01/07 10:42:06;;;;;;;3.17;1.88;;;;;;;11.05;93.78;100934.56;5093468;28;20512;-44
2023/01/07 10:44:45;;;;;;;1.95;1.85;;;;;;;11.16;92.19;100929.97;5091154;28;20048;-45
2023/01/07 10:47:32;;;;;;;3.88;2.53;;;;;;;11.39;100.00;100923.19;5092931;28;20559;-46
2023/01/07 10:50:21;;;;;;;3.03;1.80;;;;;;;11.54;95.96;100916.09;5092042;28;20043;-45
2023/01/07 10:52:53;;;;;;;3.20;2.08;;;;;;;11.46;93.62;100915.56;5093057;28;20407;-46
2023/01/07 10:55:58;;;;;;;3.47;1.65;;;;;;;12.02;96.44;100908.47;5092916;28;20040;-46
2023/01/07 10:58:39;;;;;;;3.17;2.10;;;;;;;11.84;90.98;100907.91;5076788;28;20047;-44
2023/01/07 11:01:09;;;;;;;1.60;1.50;;;;;;;12.00;97.20;100910.66;5092313;28;20040;-44
2023/01/07 11:03:39;;;;;;;3.85;2.40;;;;;;;11.83;89.09;100906.25;5093431;28;20039;-45
2023/01/07 11:06:10;;;;;;;4.25;2.00;;;;;;;11.80;96.66;100898.63;5094445;28;20052;-44
2023/01/07 11:08:41;;;;;;;2.00;1.80;;;;;;;11.98;89.14;100889.09;5086293;28;20047;-44
2023/01/07 11:11:17;;;;;;;2.63;1.90;;;;;;;11.81;89.82;100875.72;5092660;28;20140;-45
2023/01/07 11:14:11;;;;;;;1.80;1.23;;;;;;;11.87;96.59;100876.56;5091797;28;20045;-48
2023/01/07 11:16:45;;;;;;;2.58;1.77;;;;;;;12.58;86.45;100867.34;5080721;28;20047;-45
2023/01/07 11:19:13;;;;;;;1.98;1.52;;;;;;;12.39;89.61;100874.50;5091687;28;20048;-46
2023/01/07 11:21:42;;;;;;;1.42;1.30;;;;;;;12.53;86.06;100864.59;5090898;28;20131;-44
2023/01/07 11:24:31;;;;;;;3.13;1.13;;;;;;;12.99;83.42;100850.72;5093313;28;20383;-45
2023/01/07 11:27:09;;;;;;;5.57;1.95;;;;;;;12.87;87.13;100863.88;5096982;28;20452;-47
2023/01/07 11:29:41;;;;;;;1.85;1.10;;;;;;;12.78;86.92;100859.03;5078573;28;20485;-47
2023/01/07 11:32:27;;;;;;;4.25;1.75;;;;;;;12.78;85.80;100845.34;5096958;28;20100;-48
2023/01/07 11:35:00;;;;;;;1.77;1.55;;;;;;;12.45;87.97;100846.88;5095539;28;20039;-46
2023/01/07 11:37:31;;;;;;;2.72;1.42;;;;;;;12.71;88.26;100839.38;5112589;28;20111;-46
2023/01/07 11:40:01;;;;;;;4.90;2.03;;;;;;;12.79;82.68;100835.22;5097246;28;20048;-47
2023/01/07 11:42:37;;;;;;;2.60;1.70;;;;;;;12.47;80.35;100828.28;5108711;28;20040;-45
2023/01/07 11:45:19;;;;;;;3.35;1.55;;;;;;;12.34;89.12;100824.25;5096002;28;20139;-46